sensor_id;sensor_type;location;lat;lon;timestamp;P1;durP1;ratioP1;P2;durP2;ratioP2
75932;SDS011;64803;52.356;5.310;2023-04-03T00:01:32;6.25;;;1.38;;
75932;SDS011;64803;52.356;5.310;2023-04-03T00:03:58;4.03;;;1.13;;
75932;SDS011;64803;52.356;5.310;2023-04-03T00:06:25;4.18;;;1.15;;
75932;SDS011;64803;52.356;5.310;2023-04-03T00:08:51;4.75;;;1.00;;
75932;SDS011;64803;52.356;5.310;2023-04-03T00:11:18;2.75;;;0.77;;
75932;SDS011;64803;52.356;5.310;2023-04-03T00:13:45;3.78;;;1.08;;
75932;SDS011;64803;52.356;5.310;2023-04-03T00:16:11;2.58;;;0.85;;
75932;SDS011;64803;52.356;5.310;2023-04-03T00:18:38;4.40;;;1.00;;
75932;SDS011;64803;52.356;5.310;2023-04-03T00:21:05;4.22;;;0.95;;
75932;SDS011;64803;52.356;5.310;2023-04-03T00:23:32;3.13;;;0.80;;
75932;SDS011;64803;52.356;5.310;2023-04-03T00:25:58;4.45;;;0.98;;
75932;SDS011;64803;52.356;5.310;2023-04-03T00:28:24;5.35;;;1.00;;
75932;SDS011;64803;52.356;5.310;2023-04-03T00:30:51;3.88;;;0.98;;
75932;SDS011;64803;52.356;5.310;2023-04-03T00:33:17;3.38;;;1.50;;
75932;SDS011;64803;52.356;5.310;2023-04-03T00:35:47;2.85;;;0.80;;
75932;SDS011;64803;52.356;5.310;2023-04-03T00:38:14;4.38;;;1.35;;
75932;SDS011;64803;52.356;5.310;2023-04-03T00:40:45;5.28;;;0.98;;
75932;SDS011;64803;52.356;5.310;2023-04-03T00:43:21;4.10;;;1.10;;
75932;SDS011;64803;52.356;5.310;2023-04-03T00:45:50;5.43;;;1.15;;
75932;SDS011;64803;52.356;5.310;2023-04-03T00:48:19;5.70;;;1.40;;
75932;SDS011;64803;52.356;5.310;2023-04-03T00:50:48;4.15;;;1.00;;
75932;SDS011;64803;52.356;5.310;2023-04-03T00:53:16;4.53;;;1.00;;
75932;SDS011;64803;52.356;5.310;2023-04-03T00:55:47;4.28;;;1.25;;
75932;SDS011;64803;52.356;5.310;2023-04-03T00:58:15;4.35;;;1.23;;
75932;SDS011;64803;52.356;5.310;2023-04-03T01:00:46;3.83;;;1.05;;
75932;SDS011;64803;52.356;5.310;2023-04-03T01:03:19;5.55;;;1.08;;
75932;SDS011;64803;52.356;5.310;2023-04-03T01:05:45;3.47;;;1.08;;
75932;SDS011;64803;52.356;5.310;2023-04-03T01:08:11;4.95;;;1.20;;
75932;SDS011;64803;52.356;5.310;2023-04-03T01:10:37;5.78;;;1.20;;
75932;SDS011;64803;52.356;5.310;2023-04-03T01:13:22;5.40;;;1.45;;
75932;SDS011;64803;52.356;5.310;2023-04-03T01:15:57;7.50;;;1.42;;
75932;SDS011;64803;52.356;5.310;2023-04-03T01:18:27;2.83;;;0.90;;
75932;SDS011;64803;52.356;5.310;2023-04-03T01:21:06;4.38;;;1.65;;
75932;SDS011;64803;52.356;5.310;2023-04-03T01:24:02;3.28;;;1.02;;
75932;SDS011;64803;52.356;5.310;2023-04-03T01:26:37;5.75;;;1.38;;
75932;SDS011;64803;52.356;5.310;2023-04-03T01:29:04;6.13;;;1.15;;
75932;SDS011;64803;52.356;5.310;2023-04-03T01:31:32;2.67;;;0.90;;
75932;SDS011;64803;52.356;5.310;2023-04-03T01:34:19;7.05;;;1.38;;
75932;SDS011;64803;52.356;5.310;2023-04-03T01:36:45;3.83;;;0.93;;
75932;SDS011;64803;52.356;5.310;2023-04-03T01:39:11;2.95;;;0.88;;
75932;SDS011;64803;52.356;5.310;2023-04-03T01:41:38;4.55;;;1.20;;
75932;SDS011;64803;52.356;5.310;2023-04-03T01:44:12;6.30;;;1.15;;
75932;SDS011;64803;52.356;5.310;2023-04-03T01:46:38;2.72;;;1.02;;
75932;SDS011;64803;52.356;5.310;2023-04-03T01:49:05;2.95;;;0.90;;
75932;SDS011;64803;52.356;5.310;2023-04-03T01:51:31;5.90;;;1.27;;
75932;SDS011;64803;52.356;5.310;2023-04-03T01:53:58;5.47;;;1.65;;
75932;SDS011;64803;52.356;5.310;2023-04-03T01:56:24;7.68;;;1.38;;
75932;SDS011;64803;52.356;5.310;2023-04-03T01:58:50;5.15;;;1.17;;
75932;SDS011;64803;52.356;5.310;2023-04-03T02:01:17;3.05;;;1.10;;
75932;SDS011;64803;52.356;5.310;2023-04-03T02:03:43;4.45;;;1.48;;
75932;SDS011;64803;52.356;5.310;2023-04-03T02:06:09;4.18;;;1.30;;
75932;SDS011;64803;52.356;5.310;2023-04-03T02:08:35;4.45;;;1.33;;
75932;SDS011;64803;52.356;5.310;2023-04-03T02:11:01;7.22;;;1.30;;
75932;SDS011;64803;52.356;5.310;2023-04-03T02:13:28;3.63;;;1.00;;
75932;SDS011;64803;52.356;5.310;2023-04-03T02:15:54;5.65;;;1.40;;
75932;SDS011;64803;52.356;5.310;2023-04-03T02:18:20;7.25;;;1.60;;
75932;SDS011;64803;52.356;5.310;2023-04-03T02:20:46;4.18;;;1.10;;
75932;SDS011;64803;52.356;5.310;2023-04-03T02:23:12;5.93;;;1.27;;
75932;SDS011;64803;52.356;5.310;2023-04-03T02:25:38;5.32;;;1.05;;
75932;SDS011;64803;52.356;5.310;2023-04-03T02:28:04;4.18;;;0.93;;
75932;SDS011;64803;52.356;5.310;2023-04-03T02:30:31;4.22;;;1.25;;
75932;SDS011;64803;52.356;5.310;2023-04-03T02:32:57;8.35;;;1.70;;
75932;SDS011;64803;52.356;5.310;2023-04-03T02:35:24;4.68;;;1.48;;
75932;SDS011;64803;52.356;5.310;2023-04-03T02:37:50;5.70;;;1.58;;
75932;SDS011;64803;52.356;5.310;2023-04-03T02:40:16;3.95;;;1.10;;
75932;SDS011;64803;52.356;5.310;2023-04-03T02:42:42;5.40;;;0.98;;
75932;SDS011;64803;52.356;5.310;2023-04-03T02:45:08;4.22;;;1.27;;
75932;SDS011;64803;52.356;5.310;2023-04-03T02:47:35;2.45;;;1.00;;
75932;SDS011;64803;52.356;5.310;2023-04-03T02:50:01;5.03;;;1.10;;
75932;SDS011;64803;52.356;5.310;2023-04-03T02:52:27;7.15;;;1.65;;
75932;SDS011;64803;52.356;5.310;2023-04-03T02:54:56;4.15;;;1.30;;
75932;SDS011;64803;52.356;5.310;2023-04-03T02:57:22;5.30;;;1.70;;
75932;SDS011;64803;52.356;5.310;2023-04-03T02:59:48;5.07;;;1.70;;
75932;SDS011;64803;52.356;5.310;2023-04-03T03:02:14;8.52;;;1.65;;
75932;SDS011;64803;52.356;5.310;2023-04-03T03:04:40;4.15;;;1.42;;
75932;SDS011;64803;52.356;5.310;2023-04-03T03:07:06;6.53;;;1.45;;
75932;SDS011;64803;52.356;5.310;2023-04-03T03:09:32;6.75;;;1.52;;
75932;SDS011;64803;52.356;5.310;2023-04-03T03:11:58;5.07;;;1.48;;
75932;SDS011;64803;52.356;5.310;2023-04-03T03:14:24;8.48;;;1.67;;
75932;SDS011;64803;52.356;5.310;2023-04-03T03:16:50;6.25;;;1.63;;
75932;SDS011;64803;52.356;5.310;2023-04-03T03:19:17;5.07;;;1.50;;
75932;SDS011;64803;52.356;5.310;2023-04-03T03:21:43;7.50;;;1.55;;
75932;SDS011;64803;52.356;5.310;2023-04-03T03:24:09;9.95;;;1.95;;
75932;SDS011;64803;52.356;5.310;2023-04-03T03:26:35;9.90;;;1.65;;
75932;SDS011;64803;52.356;5.310;2023-04-03T03:29:01;6.97;;;1.35;;
75932;SDS011;64803;52.356;5.310;2023-04-03T03:31:28;4.28;;;1.30;;
75932;SDS011;64803;52.356;5.310;2023-04-03T03:33:54;6.30;;;1.55;;
75932;SDS011;64803;52.356;5.310;2023-04-03T03:36:21;4.13;;;1.40;;
75932;SDS011;64803;52.356;5.310;2023-04-03T03:38:47;7.25;;;1.88;;
75932;SDS011;64803;52.356;5.310;2023-04-03T03:41:13;5.97;;;1.50;;
75932;SDS011;64803;52.356;5.310;2023-04-03T03:43:42;5.97;;;1.83;;
75932;SDS011;64803;52.356;5.310;2023-04-03T03:46:08;4.13;;;1.02;;
75932;SDS011;64803;52.356;5.310;2023-04-03T03:48:34;5.35;;;1.70;;
75932;SDS011;64803;52.356;5.310;2023-04-03T03:51:01;4.47;;;1.60;;
75932;SDS011;64803;52.356;5.310;2023-04-03T03:53:31;7.70;;;2.40;;
75932;SDS011;64803;52.356;5.310;2023-04-03T03:56:02;4.47;;;1.40;;
75932;SDS011;64803;52.356;5.310;2023-04-03T03:58:30;5.95;;;1.52;;
75932;SDS011;64803;52.356;5.310;2023-04-03T04:01:01;8.65;;;1.73;;
75932;SDS011;64803;52.356;5.310;2023-04-03T04:03:29;5.97;;;1.83;;
75932;SDS011;64803;52.356;5.310;2023-04-03T04:05:55;4.93;;;1.60;;
75932;SDS011;64803;52.356;5.310;2023-04-03T04:08:22;6.38;;;1.80;;
75932;SDS011;64803;52.356;5.310;2023-04-03T04:10:48;8.88;;;1.95;;
75932;SDS011;64803;52.356;5.310;2023-04-03T04:13:16;5.50;;;1.45;;
75932;SDS011;64803;52.356;5.310;2023-04-03T04:15:42;9.43;;;1.65;;
75932;SDS011;64803;52.356;5.310;2023-04-03T04:18:09;5.07;;;1.50;;
75932;SDS011;64803;52.356;5.310;2023-04-03T04:20:35;4.55;;;1.67;;
75932;SDS011;64803;52.356;5.310;2023-04-03T04:23:02;4.30;;;1.20;;
75932;SDS011;64803;52.356;5.310;2023-04-03T04:25:29;2.95;;;1.05;;
75932;SDS011;64803;52.356;5.310;2023-04-03T04:27:55;5.85;;;1.38;;
75932;SDS011;64803;52.356;5.310;2023-04-03T04:30:21;9.80;;;2.03;;
75932;SDS011;64803;52.356;5.310;2023-04-03T04:32:48;7.32;;;1.88;;
75932;SDS011;64803;52.356;5.310;2023-04-03T04:35:15;7.68;;;1.80;;
75932;SDS011;64803;52.356;5.310;2023-04-03T04:37:43;4.00;;;1.38;;
75932;SDS011;64803;52.356;5.310;2023-04-03T04:40:09;7.25;;;2.08;;
75932;SDS011;64803;52.356;5.310;2023-04-03T04:42:36;9.68;;;2.50;;
75932;SDS011;64803;52.356;5.310;2023-04-03T04:45:02;6.53;;;1.70;;
75932;SDS011;64803;52.356;5.310;2023-04-03T04:47:29;9.60;;;2.30;;
75932;SDS011;64803;52.356;5.310;2023-04-03T04:49:55;6.95;;;1.95;;
75932;SDS011;64803;52.356;5.310;2023-04-03T04:52:21;6.47;;;2.13;;
75932;SDS011;64803;52.356;5.310;2023-04-03T04:54:47;8.07;;;2.15;;
75932;SDS011;64803;52.356;5.310;2023-04-03T04:57:14;6.05;;;2.20;;
75932;SDS011;64803;52.356;5.310;2023-04-03T04:59:40;7.97;;;2.17;;
75932;SDS011;64803;52.356;5.310;2023-04-03T05:02:07;5.40;;;2.00;;
75932;SDS011;64803;52.356;5.310;2023-04-03T05:04:33;6.90;;;1.88;;
75932;SDS011;64803;52.356;5.310;2023-04-03T05:07:05;6.55;;;2.00;;
75932;SDS011;64803;52.356;5.310;2023-04-03T05:09:34;7.97;;;2.10;;
75932;SDS011;64803;52.356;5.310;2023-04-03T05:12:00;5.72;;;1.88;;
75932;SDS011;64803;52.356;5.310;2023-04-03T05:14:32;6.60;;;2.13;;
75932;SDS011;64803;52.356;5.310;2023-04-03T05:17:02;4.22;;;1.40;;
75932;SDS011;64803;52.356;5.310;2023-04-03T05:19:31;4.82;;;1.67;;
75932;SDS011;64803;52.356;5.310;2023-04-03T05:21:58;6.60;;;2.15;;
75932;SDS011;64803;52.356;5.310;2023-04-03T05:24:24;6.55;;;2.03;;
75932;SDS011;64803;52.356;5.310;2023-04-03T05:26:50;5.85;;;2.05;;
75932;SDS011;64803;52.356;5.310;2023-04-03T05:29:16;6.70;;;2.13;;
75932;SDS011;64803;52.356;5.310;2023-04-03T05:31:42;5.13;;;1.60;;
75932;SDS011;64803;52.356;5.310;2023-04-03T05:34:10;10.43;;;1.92;;
75932;SDS011;64803;52.356;5.310;2023-04-03T05:36:37;8.05;;;1.83;;
75932;SDS011;64803;52.356;5.310;2023-04-03T05:39:07;6.85;;;2.05;;
75932;SDS011;64803;52.356;5.310;2023-04-03T05:41:36;6.45;;;1.98;;
75932;SDS011;64803;52.356;5.310;2023-04-03T05:44:02;6.30;;;1.70;;
75932;SDS011;64803;52.356;5.310;2023-04-03T05:46:28;8.30;;;1.77;;
75932;SDS011;64803;52.356;5.310;2023-04-03T05:48:56;10.40;;;2.08;;
75932;SDS011;64803;52.356;5.310;2023-04-03T05:51:27;8.25;;;1.98;;
75932;SDS011;64803;52.356;5.310;2023-04-03T05:54:03;6.68;;;1.98;;
75932;SDS011;64803;52.356;5.310;2023-04-03T05:56:35;8.38;;;1.77;;
75932;SDS011;64803;52.356;5.310;2023-04-03T05:59:01;11.55;;;2.38;;
75932;SDS011;64803;52.356;5.310;2023-04-03T06:01:28;5.32;;;1.90;;
75932;SDS011;64803;52.356;5.310;2023-04-03T06:03:56;7.95;;;2.22;;
75932;SDS011;64803;52.356;5.310;2023-04-03T06:06:24;5.22;;;1.77;;
75932;SDS011;64803;52.356;5.310;2023-04-03T06:08:50;9.15;;;1.77;;
75932;SDS011;64803;52.356;5.310;2023-04-03T06:11:17;4.75;;;1.67;;
75932;SDS011;64803;52.356;5.310;2023-04-03T06:13:43;9.18;;;1.90;;
75932;SDS011;64803;52.356;5.310;2023-04-03T06:16:11;6.45;;;2.45;;
75932;SDS011;64803;52.356;5.310;2023-04-03T06:18:40;7.22;;;2.10;;
75932;SDS011;64803;52.356;5.310;2023-04-03T06:21:07;9.45;;;2.17;;
75932;SDS011;64803;52.356;5.310;2023-04-03T06:23:33;7.32;;;2.20;;
75932;SDS011;64803;52.356;5.310;2023-04-03T06:25:59;4.93;;;1.30;;
75932;SDS011;64803;52.356;5.310;2023-04-03T06:28:26;9.88;;;2.78;;
75932;SDS011;64803;52.356;5.310;2023-04-03T06:30:52;3.70;;;1.52;;
75932;SDS011;64803;52.356;5.310;2023-04-03T06:33:17;4.80;;;1.55;;
75932;SDS011;64803;52.356;5.310;2023-04-03T06:35:43;8.80;;;2.00;;
75932;SDS011;64803;52.356;5.310;2023-04-03T06:38:10;4.97;;;1.77;;
75932;SDS011;64803;52.356;5.310;2023-04-03T06:40:36;15.05;;;2.28;;
75932;SDS011;64803;52.356;5.310;2023-04-03T06:43:02;5.20;;;1.52;;
75932;SDS011;64803;52.356;5.310;2023-04-03T06:45:28;6.93;;;2.05;;
75932;SDS011;64803;52.356;5.310;2023-04-03T06:47:54;4.93;;;1.30;;
75932;SDS011;64803;52.356;5.310;2023-04-03T06:50:21;5.50;;;1.85;;
75932;SDS011;64803;52.356;5.310;2023-04-03T06:52:47;8.27;;;1.80;;
75932;SDS011;64803;52.356;5.310;2023-04-03T06:55:13;6.43;;;1.55;;
75932;SDS011;64803;52.356;5.310;2023-04-03T06:57:39;3.63;;;1.08;;
75932;SDS011;64803;52.356;5.310;2023-04-03T07:00:05;7.20;;;1.80;;
75932;SDS011;64803;52.356;5.310;2023-04-03T07:02:32;5.07;;;1.85;;
75932;SDS011;64803;52.356;5.310;2023-04-03T07:04:58;7.03;;;1.60;;
75932;SDS011;64803;52.356;5.310;2023-04-03T07:07:24;5.88;;;1.77;;
75932;SDS011;64803;52.356;5.310;2023-04-03T07:09:50;6.97;;;2.20;;
75932;SDS011;64803;52.356;5.310;2023-04-03T07:12:17;4.75;;;1.58;;
75932;SDS011;64803;52.356;5.310;2023-04-03T07:14:42;6.40;;;1.45;;
75932;SDS011;64803;52.356;5.310;2023-04-03T07:17:09;5.50;;;1.63;;
75932;SDS011;64803;52.356;5.310;2023-04-03T07:19:37;5.00;;;1.25;;
75932;SDS011;64803;52.356;5.310;2023-04-03T07:22:03;5.93;;;1.40;;
75932;SDS011;64803;52.356;5.310;2023-04-03T07:24:29;5.07;;;1.67;;
75932;SDS011;64803;52.356;5.310;2023-04-03T07:26:55;9.65;;;1.80;;
75932;SDS011;64803;52.356;5.310;2023-04-03T07:29:21;4.97;;;1.45;;
75932;SDS011;64803;52.356;5.310;2023-04-03T07:31:47;4.55;;;1.48;;
75932;SDS011;64803;52.356;5.310;2023-04-03T07:34:13;5.13;;;1.45;;
75932;SDS011;64803;52.356;5.310;2023-04-03T07:36:39;8.57;;;1.58;;
75932;SDS011;64803;52.356;5.310;2023-04-03T07:39:05;6.15;;;1.27;;
75932;SDS011;64803;52.356;5.310;2023-04-03T07:41:32;5.13;;;1.45;;
75932;SDS011;64803;52.356;5.310;2023-04-03T07:43:58;9.20;;;2.10;;
75932;SDS011;64803;52.356;5.310;2023-04-03T07:46:24;11.45;;;2.20;;
75932;SDS011;64803;52.356;5.310;2023-04-03T07:48:51;3.75;;;1.23;;
75932;SDS011;64803;52.356;5.310;2023-04-03T07:51:17;5.20;;;1.45;;
75932;SDS011;64803;52.356;5.310;2023-04-03T07:53:43;6.32;;;1.33;;
75932;SDS011;64803;52.356;5.310;2023-04-03T07:56:09;5.82;;;1.45;;
75932;SDS011;64803;52.356;5.310;2023-04-03T07:58:36;2.83;;;0.88;;
75932;SDS011;64803;52.356;5.310;2023-04-03T08:01:02;6.45;;;1.40;;
75932;SDS011;64803;52.356;5.310;2023-04-03T08:03:28;5.93;;;1.05;;
75932;SDS011;64803;52.356;5.310;2023-04-03T08:05:55;5.63;;;1.30;;
75932;SDS011;64803;52.356;5.310;2023-04-03T08:08:29;7.15;;;1.42;;
75932;SDS011;64803;52.356;5.310;2023-04-03T08:10:57;7.30;;;1.33;;
75932;SDS011;64803;52.356;5.310;2023-04-03T08:13:24;6.28;;;1.67;;
75932;SDS011;64803;52.356;5.310;2023-04-03T08:15:51;6.90;;;1.52;;
75932;SDS011;64803;52.356;5.310;2023-04-03T08:18:17;9.93;;;1.63;;
75932;SDS011;64803;52.356;5.310;2023-04-03T08:20:47;8.32;;;1.73;;
75932;SDS011;64803;52.356;5.310;2023-04-03T08:23:13;6.35;;;1.70;;
75932;SDS011;64803;52.356;5.310;2023-04-03T08:25:41;3.55;;;0.80;;
75932;SDS011;64803;52.356;5.310;2023-04-03T08:28:07;6.38;;;1.63;;
75932;SDS011;64803;52.356;5.310;2023-04-03T08:30:34;4.43;;;1.23;;
75932;SDS011;64803;52.356;5.310;2023-04-03T08:33:00;7.18;;;1.27;;
75932;SDS011;64803;52.356;5.310;2023-04-03T08:35:27;3.92;;;0.90;;
75932;SDS011;64803;52.356;5.310;2023-04-03T08:37:54;5.68;;;1.38;;
75932;SDS011;64803;52.356;5.310;2023-04-03T08:40:20;5.80;;;1.15;;
75932;SDS011;64803;52.356;5.310;2023-04-03T08:48:06;6.20;;;1.58;;
75932;SDS011;64803;52.356;5.310;2023-04-03T08:53:25;5.07;;;1.15;;
75932;SDS011;64803;52.356;5.310;2023-04-03T08:55:54;5.72;;;1.05;;
75932;SDS011;64803;52.356;5.310;2023-04-03T08:58:21;4.85;;;0.90;;
75932;SDS011;64803;52.356;5.310;2023-04-03T09:04:09;4.30;;;1.17;;
75932;SDS011;64803;52.356;5.310;2023-04-03T09:06:37;4.47;;;1.10;;
75932;SDS011;64803;52.356;5.310;2023-04-03T09:25:56;2.05;;;0.63;;
75932;SDS011;64803;52.356;5.310;2023-04-03T09:28:27;3.55;;;1.17;;
75932;SDS011;64803;52.356;5.310;2023-04-03T09:30:55;4.28;;;0.70;;
75932;SDS011;64803;52.356;5.310;2023-04-03T09:33:21;2.58;;;0.70;;
75932;SDS011;64803;52.356;5.310;2023-04-03T09:35:48;5.15;;;0.90;;
75932;SDS011;64803;52.356;5.310;2023-04-03T09:38:17;6.00;;;1.50;;
75932;SDS011;64803;52.356;5.310;2023-04-03T09:41:29;4.40;;;0.98;;
75932;SDS011;64803;52.356;5.310;2023-04-03T09:46:30;4.28;;;0.73;;
75932;SDS011;64803;52.356;5.310;2023-04-03T09:48:58;1.73;;;0.52;;
75932;SDS011;64803;52.356;5.310;2023-04-03T09:51:29;0.85;;;0.30;;
75932;SDS011;64803;52.356;5.310;2023-04-03T09:53:56;3.90;;;0.73;;
75932;SDS011;64803;52.356;5.310;2023-04-03T09:56:24;3.50;;;0.60;;
75932;SDS011;64803;52.356;5.310;2023-04-03T10:01:26;2.28;;;0.57;;
75932;SDS011;64803;52.356;5.310;2023-04-03T10:06:47;2.08;;;0.40;;
75932;SDS011;64803;52.356;5.310;2023-04-03T10:09:25;3.50;;;0.70;;
75932;SDS011;64803;52.356;5.310;2023-04-03T10:12:03;1.27;;;0.40;;
75932;SDS011;64803;52.356;5.310;2023-04-03T10:14:39;1.13;;;0.30;;
75932;SDS011;64803;52.356;5.310;2023-04-03T10:22:33;1.00;;;0.30;;
75932;SDS011;64803;52.356;5.310;2023-04-03T10:35:57;1.90;;;0.57;;
75932;SDS011;64803;52.356;5.310;2023-04-03T10:44:26;2.47;;;0.60;;
75932;SDS011;64803;52.356;5.310;2023-04-03T10:47:02;2.20;;;0.40;;
75932;SDS011;64803;52.356;5.310;2023-04-03T10:49:41;0.85;;;0.30;;
75932;SDS011;64803;52.356;5.310;2023-04-03T10:58:09;0.82;;;0.25;;
75932;SDS011;64803;52.356;5.310;2023-04-03T11:00:47;2.65;;;0.68;;
75932;SDS011;64803;52.356;5.310;2023-04-03T11:03:39;2.03;;;0.40;;
75932;SDS011;64803;52.356;5.310;2023-04-03T11:06:10;0.95;;;0.50;;
75932;SDS011;64803;52.356;5.310;2023-04-03T11:11:29;10.88;;;0.73;;
75932;SDS011;64803;52.356;5.310;2023-04-03T11:16:28;5.22;;;0.90;;
75932;SDS011;64803;52.356;5.310;2023-04-03T11:19:20;4.72;;;0.40;;
75932;SDS011;64803;52.356;5.310;2023-04-03T11:22:03;3.30;;;0.40;;
75932;SDS011;64803;52.356;5.310;2023-04-03T11:24:37;1.50;;;0.40;;
75932;SDS011;64803;52.356;5.310;2023-04-03T11:27:08;2.00;;;0.57;;
75932;SDS011;64803;52.356;5.310;2023-04-03T11:29:42;3.03;;;0.70;;
75932;SDS011;64803;52.356;5.310;2023-04-03T11:35:07;2.25;;;0.60;;
75932;SDS011;64803;52.356;5.310;2023-04-03T11:37:38;1.83;;;0.40;;
75932;SDS011;64803;52.356;5.310;2023-04-03T11:42:48;0.93;;;0.22;;
75932;SDS011;64803;52.356;5.310;2023-04-03T11:47:55;2.38;;;0.70;;
75932;SDS011;64803;52.356;5.310;2023-04-03T12:13:34;2.30;;;0.43;;
75932;SDS011;64803;52.356;5.310;2023-04-03T12:20:58;2.53;;;0.80;;
75932;SDS011;64803;52.356;5.310;2023-04-03T12:23:26;1.90;;;0.50;;
75932;SDS011;64803;52.356;5.310;2023-04-03T12:25:52;3.65;;;0.75;;
75932;SDS011;64803;52.356;5.310;2023-04-03T12:28:26;2.85;;;0.70;;
75932;SDS011;64803;52.356;5.310;2023-04-03T12:30:53;5.85;;;0.70;;
75932;SDS011;64803;52.356;5.310;2023-04-03T12:33:42;3.90;;;0.63;;
75932;SDS011;64803;52.356;5.310;2023-04-03T12:36:31;2.70;;;0.68;;
75932;SDS011;64803;52.356;5.310;2023-04-03T12:44:59;2.45;;;0.57;;
75932;SDS011;64803;52.356;5.310;2023-04-03T12:47:37;2.42;;;0.57;;
75932;SDS011;64803;52.356;5.310;2023-04-03T12:50:16;2.80;;;0.70;;
75932;SDS011;64803;52.356;5.310;2023-04-03T12:52:51;3.72;;;0.80;;
75932;SDS011;64803;52.356;5.310;2023-04-03T12:55:22;2.58;;;0.60;;
75932;SDS011;64803;52.356;5.310;2023-04-03T12:57:49;4.30;;;0.60;;
75932;SDS011;64803;52.356;5.310;2023-04-03T13:00:34;2.85;;;0.60;;
75932;SDS011;64803;52.356;5.310;2023-04-03T13:03:05;4.53;;;0.98;;
75932;SDS011;64803;52.356;5.310;2023-04-03T13:05:32;3.30;;;0.55;;
75932;SDS011;64803;52.356;5.310;2023-04-03T13:08:01;3.17;;;0.80;;
75932;SDS011;64803;52.356;5.310;2023-04-03T13:10:30;3.90;;;1.00;;
75932;SDS011;64803;52.356;5.310;2023-04-03T13:13:06;3.08;;;0.70;;
75932;SDS011;64803;52.356;5.310;2023-04-03T13:15:44;4.22;;;0.98;;
75932;SDS011;64803;52.356;5.310;2023-04-03T13:20:52;3.10;;;0.60;;
75932;SDS011;64803;52.356;5.310;2023-04-03T13:23:22;5.13;;;0.90;;
75932;SDS011;64803;52.356;5.310;2023-04-03T13:25:49;3.72;;;0.82;;
75932;SDS011;64803;52.356;5.310;2023-04-03T13:28:18;4.63;;;0.82;;
75932;SDS011;64803;52.356;5.310;2023-04-03T13:33:30;3.55;;;0.90;;
75932;SDS011;64803;52.356;5.310;2023-04-03T13:36:11;3.53;;;0.68;;
75932;SDS011;64803;52.356;5.310;2023-04-03T13:38:45;3.13;;;0.80;;
75932;SDS011;64803;52.356;5.310;2023-04-03T13:43:55;1.77;;;0.63;;
75932;SDS011;64803;52.356;5.310;2023-04-03T13:46:23;5.25;;;1.23;;
75932;SDS011;64803;52.356;5.310;2023-04-03T13:48:53;2.65;;;0.70;;
75932;SDS011;64803;52.356;5.310;2023-04-03T13:51:22;5.40;;;0.40;;
75932;SDS011;64803;52.356;5.310;2023-04-03T13:53:53;2.70;;;0.85;;
75932;SDS011;64803;52.356;5.310;2023-04-03T13:56:32;4.70;;;0.85;;
75932;SDS011;64803;52.356;5.310;2023-04-03T13:59:06;6.82;;;0.95;;
75932;SDS011;64803;52.356;5.310;2023-04-03T14:01:50;3.83;;;0.95;;
75932;SDS011;64803;52.356;5.310;2023-04-03T14:04:43;3.85;;;0.70;;
75932;SDS011;64803;52.356;5.310;2023-04-03T14:07:10;4.90;;;0.70;;
75932;SDS011;64803;52.356;5.310;2023-04-03T14:09:37;2.50;;;0.75;;
75932;SDS011;64803;52.356;5.310;2023-04-03T14:12:08;3.75;;;0.73;;
75932;SDS011;64803;52.356;5.310;2023-04-03T14:14:40;3.83;;;0.88;;
75932;SDS011;64803;52.356;5.310;2023-04-03T14:17:13;5.60;;;0.90;;
75932;SDS011;64803;52.356;5.310;2023-04-03T14:19:44;3.63;;;0.75;;
75932;SDS011;64803;52.356;5.310;2023-04-03T14:22:16;5.70;;;0.98;;
75932;SDS011;64803;52.356;5.310;2023-04-03T14:24:43;5.30;;;1.10;;
75932;SDS011;64803;52.356;5.310;2023-04-03T14:27:16;2.83;;;0.77;;
75932;SDS011;64803;52.356;5.310;2023-04-03T14:29:46;3.50;;;1.02;;
75932;SDS011;64803;52.356;5.310;2023-04-03T14:32:13;2.92;;;0.60;;
75932;SDS011;64803;52.356;5.310;2023-04-03T14:34:41;2.42;;;0.60;;
75932;SDS011;64803;52.356;5.310;2023-04-03T14:37:16;3.90;;;0.90;;
75932;SDS011;64803;52.356;5.310;2023-04-03T14:39:44;4.07;;;0.95;;
75932;SDS011;64803;52.356;5.310;2023-04-03T14:42:16;3.50;;;0.80;;
75932;SDS011;64803;52.356;5.310;2023-04-03T14:44:44;2.20;;;0.52;;
75932;SDS011;64803;52.356;5.310;2023-04-03T14:47:16;4.43;;;1.20;;
75932;SDS011;64803;52.356;5.310;2023-04-03T14:49:45;4.32;;;0.82;;
75932;SDS011;64803;52.356;5.310;2023-04-03T14:52:17;2.75;;;0.70;;
75932;SDS011;64803;52.356;5.310;2023-04-03T14:54:47;2.47;;;0.68;;
75932;SDS011;64803;52.356;5.310;2023-04-03T14:57:14;8.13;;;0.70;;
75932;SDS011;64803;52.356;5.310;2023-04-03T14:59:42;3.88;;;0.90;;
75932;SDS011;64803;52.356;5.310;2023-04-03T15:04:55;3.47;;;1.05;;
75932;SDS011;64803;52.356;5.310;2023-04-03T15:07:23;5.55;;;0.60;;
75932;SDS011;64803;52.356;5.310;2023-04-03T15:09:51;2.00;;;0.50;;
75932;SDS011;64803;52.356;5.310;2023-04-03T15:12:17;3.72;;;0.73;;
75932;SDS011;64803;52.356;5.310;2023-04-03T15:14:43;6.03;;;1.05;;
75932;SDS011;64803;52.356;5.310;2023-04-03T15:17:16;5.65;;;1.05;;
75932;SDS011;64803;52.356;5.310;2023-04-03T15:19:45;4.38;;;0.70;;
75932;SDS011;64803;52.356;5.310;2023-04-03T15:22:18;4.88;;;0.90;;
75932;SDS011;64803;52.356;5.310;2023-04-03T15:24:45;3.53;;;0.90;;
75932;SDS011;64803;52.356;5.310;2023-04-03T15:27:12;4.68;;;0.80;;
75932;SDS011;64803;52.356;5.310;2023-04-03T15:29:39;5.53;;;1.00;;
75932;SDS011;64803;52.356;5.310;2023-04-03T15:32:07;2.80;;;0.70;;
75932;SDS011;64803;52.356;5.310;2023-04-03T15:34:34;4.00;;;0.93;;
75932;SDS011;64803;52.356;5.310;2023-04-03T15:37:01;3.45;;;0.80;;
75932;SDS011;64803;52.356;5.310;2023-04-03T15:39:27;3.08;;;0.70;;
75932;SDS011;64803;52.356;5.310;2023-04-03T15:41:53;4.78;;;1.00;;
75932;SDS011;64803;52.356;5.310;2023-04-03T15:44:20;2.15;;;0.88;;
75932;SDS011;64803;52.356;5.310;2023-04-03T15:46:47;3.47;;;0.93;;
75932;SDS011;64803;52.356;5.310;2023-04-03T15:49:19;5.45;;;1.10;;
75932;SDS011;64803;52.356;5.310;2023-04-03T15:51:46;3.20;;;1.38;;
75932;SDS011;64803;52.356;5.310;2023-04-03T15:54:12;4.95;;;1.08;;
75932;SDS011;64803;52.356;5.310;2023-04-03T15:56:38;5.20;;;0.98;;
75932;SDS011;64803;52.356;5.310;2023-04-03T15:59:05;5.10;;;0.80;;
75932;SDS011;64803;52.356;5.310;2023-04-03T16:01:31;5.38;;;1.23;;
75932;SDS011;64803;52.356;5.310;2023-04-03T16:03:57;5.45;;;0.93;;
75932;SDS011;64803;52.356;5.310;2023-04-03T16:06:23;3.90;;;1.00;;
75932;SDS011;64803;52.356;5.310;2023-04-03T16:08:50;4.60;;;0.95;;
75932;SDS011;64803;52.356;5.310;2023-04-03T16:11:16;4.95;;;1.00;;
75932;SDS011;64803;52.356;5.310;2023-04-03T16:13:43;7.28;;;1.10;;
75932;SDS011;64803;52.356;5.310;2023-04-03T16:16:09;5.53;;;1.10;;
75932;SDS011;64803;52.356;5.310;2023-04-03T16:18:35;4.15;;;1.20;;
75932;SDS011;64803;52.356;5.310;2023-04-03T16:21:02;5.03;;;1.10;;
75932;SDS011;64803;52.356;5.310;2023-04-03T16:23:28;3.33;;;1.00;;
75932;SDS011;64803;52.356;5.310;2023-04-03T16:25:54;4.40;;;1.02;;
75932;SDS011;64803;52.356;5.310;2023-04-03T16:28:20;4.93;;;1.02;;
75932;SDS011;64803;52.356;5.310;2023-04-03T16:30:46;4.05;;;0.90;;
75932;SDS011;64803;52.356;5.310;2023-04-03T16:33:13;4.32;;;1.20;;
75932;SDS011;64803;52.356;5.310;2023-04-03T16:35:39;3.65;;;1.00;;
75932;SDS011;64803;52.356;5.310;2023-04-03T16:38:07;3.75;;;1.10;;
75932;SDS011;64803;52.356;5.310;2023-04-03T16:40:33;2.92;;;0.80;;
75932;SDS011;64803;52.356;5.310;2023-04-03T16:43:00;4.22;;;0.80;;
75932;SDS011;64803;52.356;5.310;2023-04-03T16:45:27;2.78;;;0.70;;
75932;SDS011;64803;52.356;5.310;2023-04-03T16:47:53;2.65;;;0.70;;
75932;SDS011;64803;52.356;5.310;2023-04-03T16:50:19;3.25;;;0.98;;
75932;SDS011;64803;52.356;5.310;2023-04-03T16:52:45;3.67;;;0.90;;
75932;SDS011;64803;52.356;5.310;2023-04-03T16:55:12;3.03;;;0.90;;
75932;SDS011;64803;52.356;5.310;2023-04-03T16:57:38;2.60;;;0.90;;
75932;SDS011;64803;52.356;5.310;2023-04-03T17:00:05;4.40;;;1.10;;